Time;durP1;ratioP1;P1;durP2;ratioP2;P2;SDS_P1;SDS_P2;PMS_P1;PMS_P2;Temp;Humidity;BMP_temperature;BMP_pressure;BME280_temperature;BME280_humidity;BME280_pressure;Samples;Min_cycle;Max_cycle;Signal;HPM_P1;HPM_P2
2021/11/06 00:00:24;;;;;;;143.93;24.90;;;8.50;99.90;;;;;;6247671;22;20521;-72
2021/11/06 00:02:52;;;;;;;179.80;33.13;;;8.50;99.90;;;;;;6245941;23;20499;-72
2021/11/06 00:05:22;;;;;;;138.23;19.17;;;8.50;99.90;;;;;;6247695;22;20791;-72
2021/11/06 00:07:53;;;;;;;281.80;32.13;;;8.50;99.90;;;;;;6257309;23;20460;-72
2021/11/06 00:10:21;;;;;;;198.37;22.60;;;8.50;99.90;;;;;;6257402;23;20423;-72
2021/11/06 00:12:50;;;;;;;113.93;15.33;;;8.50;99.90;;;;;;6245773;23;20421;-72
2021/11/06 00:15:19;;;;;;;137.37;26.33;;;8.50;99.90;;;;;;6257541;23;20550;-72
2021/11/06 00:17:47;;;;;;;151.63;15.83;;;8.50;99.90;;;;;;6245762;23;20436;-72
2021/11/06 00:20:16;;;;;;;102.33;15.03;;;8.50;99.90;;;;;;6257306;22;20469;-72
2021/11/06 00:22:46;;;;;;;141.77;22.20;;;8.50;99.90;;;;;;6257551;22;20785;-72
2021/11/06 00:25:15;;;;;;;114.50;17.77;;;8.50;99.90;;;;;;6257461;23;20967;-73
2021/11/06 00:27:46;;;;;;;140.43;18.27;;;8.50;99.90;;;;;;6257159;23;20412;-72
2021/11/06 00:30:15;;;;;;;185.17;29.57;;;8.40;99.90;;;;;;6245657;23;20959;-72
2021/11/06 00:32:44;;;;;;;199.47;32.53;;;8.40;99.90;;;;;;6247388;23;20406;-73
2021/11/06 00:35:13;;;;;;;91.30;14.20;;;8.40;99.90;;;;;;6245647;23;20415;-73
2021/11/06 00:37:42;;;;;;;133.97;26.03;;;8.40;99.90;;;;;;6247045;22;20436;-73
2021/11/06 00:40:14;;;;;;;127.23;22.07;;;8.40;99.90;;;;;;6247252;22;20462;-73
2021/11/06 00:42:42;;;;;;;157.47;22.00;;;8.40;99.90;;;;;;6245392;23;20436;-72
2021/11/06 00:45:12;;;;;;;163.43;18.73;;;8.40;99.90;;;;;;6245482;23;20424;-73
2021/11/06 00:47:41;;;;;;;193.03;31.63;;;8.40;99.90;;;;;;6256996;23;20405;-72
2021/11/06 00:50:15;;;;;;;125.90;18.60;;;8.40;99.90;;;;;;6257006;23;20446;-72
2021/11/06 00:52:44;;;;;;;109.40;18.90;;;8.40;99.90;;;;;;6257091;23;20385;-73
2021/11/06 00:55:15;;;;;;;154.43;16.80;;;8.40;99.90;;;;;;6257539;23;20795;-72
2021/11/06 00:57:43;;;;;;;152.20;17.70;;;8.40;99.90;;;;;;6257494;23;20872;-73
2021/11/06 01:00:13;;;;;;;138.80;25.67;;;8.40;99.90;;;;;;6246847;23;20467;-73
2021/11/06 01:02:42;;;;;;;129.43;17.63;;;8.40;99.90;;;;;;6245397;23;20413;-73
2021/11/06 01:05:13;;;;;;;185.53;30.87;;;8.40;99.90;;;;;;6246794;23;20974;-73
2021/11/06 01:07:41;;;;;;;185.87;26.13;;;8.40;99.90;;;;;;6244782;23;20865;-73
2021/11/06 01:10:12;;;;;;;166.57;16.57;;;8.40;99.90;;;;;;6247234;22;20512;-73
2021/11/06 01:12:42;;;;;;;150.67;23.33;;;8.40;99.90;;;;;;6247010;23;20857;-73
2021/11/06 01:15:12;;;;;;;175.40;20.37;;;8.40;99.90;;;;;;6245252;23;20445;-73
2021/11/06 01:17:41;;;;;;;105.20;16.20;;;8.40;99.90;;;;;;6257692;23;20409;-73
2021/11/06 01:20:10;;;;;;;135.43;27.47;;;8.40;99.90;;;;;;6245074;23;20480;-73
2021/11/06 01:22:38;;;;;;;88.23;18.37;;;8.30;99.90;;;;;;6245191;23;20869;-73
2021/11/06 01:25:08;;;;;;;143.90;21.43;;;8.30;99.90;;;;;;6257671;23;20431;-73
2021/11/06 01:27:36;;;;;;;152.67;18.90;;;8.30;99.90;;;;;;6256817;22;20892;-73
2021/11/06 01:30:08;;;;;;;140.10;25.73;;;8.30;99.90;;;;;;6244988;23;20436;-73
2021/11/06 01:32:36;;;;;;;139.87;21.00;;;8.30;99.90;;;;;;6247029;22;20427;-73
2021/11/06 01:35:05;;;;;;;113.27;17.00;;;8.30;99.90;;;;;;6244801;23;20422;-73
2021/11/06 01:37:33;;;;;;;97.17;18.17;;;8.30;99.90;;;;;;6256742;22;20397;-73
2021/11/06 01:40:02;;;;;;;84.30;12.70;;;8.30;99.90;;;;;;6256521;23;20434;-73
2021/11/06 01:42:31;;;;;;;211.50;23.50;;;8.30;99.90;;;;;;6244807;23;20825;-73
2021/11/06 01:45:00;;;;;;;112.33;21.57;;;8.30;99.90;;;;;;6246578;23;20436;-73
2021/11/06 01:47:29;;;;;;;114.63;21.70;;;8.30;99.90;;;;;;6256644;23;20394;-73
2021/11/06 01:49:58;;;;;;;156.20;25.87;;;8.30;99.90;;;;;;6246495;22;20455;-73
2021/11/06 01:52:26;;;;;;;156.43;21.17;;;8.30;99.90;;;;;;6244712;23;20455;-73
2021/11/06 01:54:57;;;;;;;130.80;23.97;;;8.30;99.90;;;;;;6256579;23;20492;-73
2021/11/06 01:57:28;;;;;;;132.90;20.30;;;8.30;99.90;;;;;;6245031;23;20463;-73
2021/11/06 01:59:57;;;;;;;204.67;24.03;;;8.30;99.90;;;;;;6245248;23;20800;-73
2021/11/06 02:02:26;;;;;;;168.93;27.70;;;8.30;99.90;;;;;;6246688;23;20402;-73
2021/11/06 02:04:55;;;;;;;230.80;34.03;;;8.30;99.90;;;;;;6244686;23;20413;-73
2021/11/06 02:07:23;;;;;;;182.57;19.60;;;8.30;99.90;;;;;;6256347;23;20437;-73
2021/11/06 02:09:52;;;;;;;124.47;19.73;;;8.30;99.90;;;;;;6244613;23;20734;-73
2021/11/06 02:12:20;;;;;;;136.33;20.50;;;8.30;99.90;;;;;;6256127;23;20397;-73
2021/11/06 02:14:48;;;;;;;213.80;25.00;;;8.30;99.90;;;;;;6256541;23;20491;-73
2021/11/06 02:17:16;;;;;;;144.77;19.83;;;8.30;99.90;;;;;;6244624;23;20427;-73
2021/11/06 02:19:45;;;;;;;122.90;21.57;;;8.30;99.90;;;;;;6244717;23;20424;-72
2021/11/06 02:22:14;;;;;;;120.53;18.00;;;8.30;99.90;;;;;;6256261;22;20458;-73
2021/11/06 02:24:42;;;;;;;134.17;23.43;;;8.30;99.90;;;;;;6244622;23;20402;-73
2021/11/06 02:27:11;;;;;;;148.00;16.43;;;8.30;99.90;;;;;;6244646;23;20907;-72
2021/11/06 02:29:39;;;;;;;105.30;12.90;;;8.30;99.90;;;;;;6256440;22;20420;-72
2021/11/06 02:32:09;;;;;;;199.37;26.27;;;8.30;99.90;;;;;;6256389;23;20397;-73
2021/11/06 02:34:37;;;;;;;106.07;18.63;;;8.30;99.90;;;;;;6244591;23;20448;-73
2021/11/06 02:37:05;;;;;;;99.90;18.87;;;8.30;99.90;;;;;;6245113;23;20445;-72
2021/11/06 02:39:35;;;;;;;118.83;13.73;;;8.30;99.90;;;;;;6256910;22;20481;-72
2021/11/06 02:42:06;;;;;;;143.40;20.07;;;8.30;99.90;;;;;;6256240;23;21010;-72
2021/11/06 02:44:35;;;;;;;155.90;19.83;;;8.30;99.90;;;;;;6244407;23;20429;-72
2021/11/06 02:47:04;;;;;;;107.07;17.57;;;8.40;99.90;;;;;;6256258;22;20463;-72
2021/11/06 02:49:33;;;;;;;132.57;23.20;;;8.40;99.90;;;;;;6256300;23;20405;-73
2021/11/06 02:52:01;;;;;;;143.33;19.70;;;8.40;99.90;;;;;;6246136;23;20410;-72
2021/11/06 02:54:30;;;;;;;162.70;24.00;;;8.40;99.90;;;;;;6256607;22;20767;-72
2021/11/06 02:57:00;;;;;;;165.17;22.37;;;8.40;99.90;;;;;;6244462;23;20885;-72
2021/11/06 02:59:28;;;;;;;241.30;30.27;;;8.40;99.90;;;;;;6244835;23;20409;-72
2021/11/06 03:01:57;;;;;;;199.10;30.63;;;8.40;99.90;;;;;;6255907;23;20440;-73
2021/11/06 03:04:25;;;;;;;211.47;28.97;;;8.40;99.90;;;;;;6244526;23;20416;-73
2021/11/06 03:06:53;;;;;;;84.53;12.27;;;8.40;99.90;;;;;;6244127;23;20512;-73
2021/11/06 03:09:23;;;;;;;117.00;18.53;;;8.50;99.90;;;;;;6245978;23;20416;-72
2021/11/06 03:11:53;;;;;;;134.37;18.37;;;8.50;99.90;;;;;;6256030;23;20406;-72
2021/11/06 03:14:24;;;;;;;107.10;19.53;;;8.50;99.90;;;;;;6256529;23;20489;-72
2021/11/06 03:16:53;;;;;;;178.03;16.13;;;8.50;99.90;;;;;;6244405;23;20449;-72
2021/11/06 03:19:21;;;;;;;101.37;19.83;;;8.50;99.90;;;;;;6256586;23;20741;-73
2021/11/06 03:21:49;;;;;;;170.30;23.53;;;8.50;99.90;;;;;;6255961;23;20456;-72
2021/11/06 03:24:17;;;;;;;140.53;17.57;;;8.50;99.90;;;;;;6245514;23;20425;-73
2021/11/06 03:26:45;;;;;;;97.97;20.77;;;8.50;99.90;;;;;;6246332;23;20424;-72
2021/11/06 03:29:14;;;;;;;81.03;11.40;;;8.50;99.90;;;;;;6246059;23;20451;-73
2021/11/06 03:31:43;;;;;;;142.83;20.63;;;8.60;99.90;;;;;;6257696;23;20793;-73
2021/11/06 03:34:11;;;;;;;148.37;22.13;;;8.60;99.90;;;;;;6246154;23;21032;-73
2021/11/06 03:36:40;;;;;;;168.50;25.63;;;8.60;99.90;;;;;;6246079;23;20417;-73
2021/11/06 03:39:09;;;;;;;75.73;16.03;;;8.60;99.90;;;;;;6246205;23;20490;-73
2021/11/06 03:41:37;;;;;;;81.90;16.10;;;8.60;99.90;;;;;;6245935;23;20441;-73
2021/11/06 03:44:06;;;;;;;199.77;27.37;;;8.60;99.90;;;;;;6246029;23;20931;-73
2021/11/06 03:46:35;;;;;;;125.67;22.73;;;8.60;99.90;;;;;;6257838;23;20401;-73
2021/11/06 03:49:04;;;;;;;145.10;19.73;;;8.60;99.90;;;;;;6246076;23;20421;-73
2021/11/06 03:51:33;;;;;;;116.23;16.70;;;8.60;99.90;;;;;;6257615;22;20414;-73
2021/11/06 03:54:01;;;;;;;244.17;37.53;;;8.60;99.90;;;;;;6246080;23;20417;-73
2021/11/06 03:56:30;;;;;;;126.40;19.70;;;8.60;99.90;;;;;;6245930;23;20914;-73
2021/11/06 03:58:58;;;;;;;154.90;23.40;;;8.60;99.90;;;;;;6257784;23;20399;-73
2021/11/06 04:01:26;;;;;;;197.40;27.50;;;8.60;99.90;;;;;;6245764;23;20472;-73
2021/11/06 04:03:56;;;;;;;163.40;26.50;;;8.60;99.90;;;;;;6257746;23;20492;-73
2021/11/06 04:06:25;;;;;;;110.63;17.33;;;8.60;99.90;;;;;;6245795;23;20425;-73
2021/11/06 04:08:54;;;;;;;149.53;26.27;;;8.70;99.90;;;;;;6257709;23;20461;-73
2021/11/06 04:11:23;;;;;;;226.13;28.87;;;8.70;99.90;;;;;;6245709;23;20495;-73
2021/11/06 04:13:55;;;;;;;134.67;26.80;;;8.70;99.90;;;;;;6245744;23;20429;-72
2021/11/06 04:16:23;;;;;;;189.30;34.53;;;8.70;99.90;;;;;;6257683;23;20491;-73
2021/11/06 04:18:52;;;;;;;190.93;19.93;;;8.70;99.90;;;;;;6257475;22;20404;-73
2021/11/06 04:21:20;;;;;;;89.57;19.37;;;8.70;99.90;;;;;;6245645;23;20527;-73
2021/11/06 04:23:49;;;;;;;117.90;21.10;;;8.70;99.90;;;;;;6245752;23;20463;-73
2021/11/06 04:26:18;;;;;;;87.57;18.00;;;8.70;99.90;;;;;;6257352;23;20394;-73
2021/11/06 04:28:46;;;;;;;168.20;25.53;;;8.70;99.90;;;;;;6245737;23;20416;-73
2021/11/06 04:31:14;;;;;;;224.00;33.67;;;8.70;99.90;;;;;;6245684;23;20476;-72
2021/11/06 04:33:42;;;;;;;235.70;33.73;;;8.70;99.90;;;;;;6245689;23;20532;-73
2021/11/06 04:36:10;;;;;;;102.27;26.97;;;8.70;99.90;;;;;;6256799;22;20497;-73
2021/11/06 04:38:39;;;;;;;115.20;17.30;;;8.70;99.90;;;;;;6245585;23;20410;-72
2021/11/06 04:41:08;;;;;;;129.53;21.17;;;8.70;99.90;;;;;;6257190;23;20798;-73
2021/11/06 04:43:38;;;;;;;209.23;36.43;;;8.70;99.90;;;;;;6247635;23;20437;-72
2021/11/06 04:46:06;;;;;;;100.30;20.83;;;8.70;99.90;;;;;;6247313;22;20433;-73
2021/11/06 04:48:34;;;;;;;126.93;28.90;;;8.70;99.90;;;;;;6257688;23;20432;-73
2021/11/06 04:51:02;;;;;;;250.50;42.43;;;8.70;99.90;;;;;;6257339;22;20835;-73
2021/11/06 04:53:31;;;;;;;181.87;29.53;;;8.70;99.90;;;;;;6245577;23;20445;-73
2021/11/06 04:55:59;;;;;;;176.37;29.83;;;8.70;99.90;;;;;;6246985;22;20729;-72
2021/11/06 04:58:29;;;;;;;184.83;30.67;;;8.70;99.90;;;;;;6245387;23;20417;-73
2021/11/06 05:00:57;;;;;;;169.10;35.77;;;8.70;99.90;;;;;;6244921;23;20433;-73
2021/11/06 05:03:25;;;;;;;134.80;20.50;;;8.70;99.90;;;;;;6256901;23;20764;-73
2021/11/06 05:05:53;;;;;;;16.35;12.48;;;8.70;99.90;;;;;;6252020;23;20432;-72
2021/11/06 05:08:22;;;;;;;146.73;35.23;;;8.80;99.90;;;;;;6245346;23;20250;-73
2021/11/06 05:10:50;;;;;;;158.47;34.00;;;8.80;99.90;;;;;;6245081;23;20438;-72
2021/11/06 05:13:18;;;;;;;226.97;45.60;;;8.80;99.90;;;;;;6257283;22;20392;-72
2021/11/06 05:15:48;;;;;;;122.03;31.13;;;8.80;99.90;;;;;;6257059;22;20448;-73
2021/11/06 05:18:18;;;;;;;163.23;35.67;;;8.80;99.90;;;;;;6245240;23;20418;-73
2021/11/06 05:20:46;;;;;;;175.17;30.67;;;8.80;99.90;;;;;;6245793;23;20441;-73
2021/11/06 05:23:15;;;;;;;135.03;30.43;;;8.80;99.90;;;;;;6247517;23;20468;-72
2021/11/06 05:25:44;;;;;;;165.50;28.20;;;8.80;99.90;;;;;;6245376;23;20413;-73
2021/11/06 05:28:12;;;;;;;152.87;31.30;;;8.80;99.90;;;;;;6257308;23;20857;-73
2021/11/06 05:30:41;;;;;;;188.73;28.83;;;8.80;99.90;;;;;;6245138;23;20458;-73
2021/11/06 05:33:11;;;;;;;196.40;28.17;;;8.80;99.90;;;;;;6246644;22;20413;-73
2021/11/06 05:35:39;;;;;;;199.17;42.87;;;8.90;99.90;;;;;;6257260;22;20846;-73
2021/11/06 05:38:07;;;;;;;205.60;40.93;;;8.90;99.90;;;;;;6244848;23;20799;-73
2021/11/06 05:40:36;;;;;;;122.33;34.40;;;8.90;99.90;;;;;;6256521;23;20423;-73
2021/11/06 05:43:04;;;;;;;153.73;33.80;;;8.90;99.90;;;;;;6256230;23;20468;-72
2021/11/06 05:45:32;;;;;;;131.17;27.93;;;8.90;99.90;;;;;;6256815;23;20485;-73
2021/11/06 05:48:01;;;;;;;160.20;38.43;;;8.80;99.90;;;;;;6256558;23;20398;-73
2021/11/06 05:50:30;;;;;;;116.73;30.30;;;8.80;99.90;;;;;;6244950;23;20429;-72
2021/11/06 05:52:58;;;;;;;151.80;35.63;;;8.80;99.90;;;;;;6244877;23;20402;-73
2021/11/06 05:55:27;;;;;;;272.93;40.57;;;8.90;99.90;;;;;;6246822;23;20776;-72
2021/11/06 05:57:55;;;;;;;143.20;35.17;;;8.80;99.90;;;;;;6244843;23;20431;-73
2021/11/06 06:00:23;;;;;;;169.60;33.47;;;8.80;99.90;;;;;;6256660;23;20453;-73
2021/11/06 06:02:51;;;;;;;138.93;36.43;;;8.80;99.90;;;;;;6245036;23;20473;-73
2021/11/06 06:05:20;;;;;;;179.57;34.97;;;8.80;99.90;;;;;;6246955;23;20406;-73
2021/11/06 06:07:49;;;;;;;198.73;43.03;;;8.80;99.90;;;;;;6245645;23;20804;-73
2021/11/06 06:10:18;;;;;;;130.23;36.87;;;8.80;99.90;;;;;;6245583;23;20482;-73
2021/11/06 06:12:50;;;;;;;106.67;38.27;;;8.80;99.90;;;;;;6257565;23;20880;-73
2021/11/06 06:15:19;;;;;;;100.83;33.70;;;8.80;99.90;;;;;;6245317;23;20412;-73
2021/11/06 06:17:48;;;;;;;138.00;32.93;;;8.80;99.90;;;;;;6256992;23;20794;-73
2021/11/06 06:20:17;;;;;;;210.73;40.60;;;8.80;99.90;;;;;;6245148;23;20770;-73
2021/11/06 06:22:46;;;;;;;137.67;37.27;;;8.80;99.90;;;;;;6244948;23;20524;-73
2021/11/06 06:25:16;;;;;;;108.33;38.77;;;8.80;99.90;;;;;;6245276;23;20505;-72
2021/11/06 06:27:45;;;;;;;171.47;44.60;;;8.80;99.90;;;;;;6257334;23;20385;-73
2021/11/06 06:30:16;;;;;;;227.80;49.67;;;8.80;99.90;;;;;;6245094;23;20426;-73
2021/11/06 06:32:44;;;;;;;153.00;43.40;;;8.80;99.90;;;;;;6257689;23;20867;-73
2021/11/06 06:35:14;;;;;;;257.60;53.67;;;8.80;99.90;;;;;;6245128;23;20748;-73
2021/11/06 06:37:43;;;;;;;202.97;45.93;;;8.80;99.90;;;;;;6256822;22;20406;-73
2021/11/06 06:40:13;;;;;;;148.50;46.47;;;8.80;99.90;;;;;;6246952;22;20500;-72
2021/11/06 06:42:43;;;;;;;251.73;55.50;;;8.80;99.90;;;;;;6257077;22;20422;-72
2021/11/06 06:45:11;;;;;;;127.13;41.63;;;8.80;99.90;;;;;;6245107;23;20436;-73
2021/11/06 06:47:39;;;;;;;135.13;47.10;;;8.80;99.90;;;;;;6246719;23;20521;-74
2021/11/06 06:50:08;;;;;;;247.07;55.37;;;8.80;99.90;;;;;;6245229;23;20426;-73
2021/11/06 06:52:37;;;;;;;109.50;38.43;;;8.80;99.90;;;;;;6245262;23;20440;-72
2021/11/06 06:55:06;;;;;;;217.07;46.10;;;8.80;99.90;;;;;;6256719;23;20777;-72
2021/11/06 06:57:34;;;;;;;225.27;56.63;;;8.80;99.90;;;;;;6245241;23;20415;-72
2021/11/06 07:00:06;;;;;;;96.67;38.47;;;8.80;99.90;;;;;;6246832;23;20461;-72
2021/11/06 07:02:34;;;;;;;140.10;38.27;;;8.90;99.90;;;;;;6248351;22;20447;-72
2021/11/06 07:05:02;;;;;;;176.77;49.00;;;8.80;99.90;;;;;;6258776;23;20393;-72
2021/11/06 07:07:30;;;;;;;161.53;43.03;;;8.90;99.90;;;;;;6248381;22;20806;-73
2021/11/06 07:09:59;;;;;;;199.10;52.43;;;8.90;99.90;;;;;;6259108;23;20444;-72
2021/11/06 07:12:29;;;;;;;156.23;50.83;;;8.90;99.90;;;;;;6259062;23;20487;-72
2021/11/06 07:14:57;;;;;;;275.93;56.67;;;8.90;99.90;;;;;;6258706;22;20378;-72
2021/11/06 07:17:27;;;;;;;200.83;46.23;;;8.90;99.90;;;;;;6246905;23;20741;-72
2021/11/06 07:19:55;;;;;;;264.43;57.67;;;8.90;99.90;;;;;;6248632;22;20401;-72
2021/11/06 07:22:24;;;;;;;201.07;48.00;;;8.90;99.90;;;;;;6248469;23;20936;-72
2021/11/06 07:24:52;;;;;;;173.37;49.77;;;8.90;99.90;;;;;;6248520;22;20433;-72
2021/11/06 07:27:20;;;;;;;188.37;51.17;;;9.00;99.90;;;;;;6246353;23;20474;-73
2021/11/06 07:29:48;;;;;;;138.27;44.33;;;8.90;99.90;;;;;;6246712;23;20421;-73
2021/11/06 07:32:17;;;;;;;105.70;38.33;;;9.00;99.90;;;;;;6247083;23;20798;-73
2021/11/06 07:34:46;;;;;;;147.57;42.00;;;9.00;99.90;;;;;;6247123;23;20441;-72
2021/11/06 07:37:14;;;;;;;189.10;49.57;;;9.00;99.90;;;;;;6258376;22;20520;-72
2021/11/06 07:39:43;;;;;;;154.13;42.93;;;9.00;99.90;;;;;;6258389;23;20455;-72
2021/11/06 07:42:11;;;;;;;225.27;47.17;;;9.00;99.90;;;;;;6258350;23;20479;-72
2021/11/06 07:44:39;;;;;;;177.43;44.30;;;9.00;99.90;;;;;;6246610;23;20829;-73
2021/11/06 07:47:07;;;;;;;152.80;38.83;;;9.00;99.90;;;;;;6248445;22;20405;-73
2021/11/06 07:49:35;;;;;;;109.50;39.57;;;9.00;99.90;;;;;;6247948;23;20879;-72
2021/11/06 07:52:05;;;;;;;189.27;46.07;;;9.00;99.90;;;;;;6248560;23;20496;-72
2021/11/06 07:54:33;;;;;;;132.83;47.13;;;9.00;99.90;;;;;;6258715;23;20395;-73
2021/11/06 07:57:02;;;;;;;164.13;49.37;;;9.00;99.90;;;;;;6258374;23;20464;-73
2021/11/06 07:59:30;;;;;;;164.13;48.17;;;9.10;99.90;;;;;;6246203;23;20417;-72
2021/11/06 08:01:59;;;;;;;239.20;49.27;;;9.00;99.90;;;;;;6246381;23;20928;-72
2021/11/06 08:04:27;;;;;;;115.53;38.60;;;9.10;99.90;;;;;;6258759;23;20468;-72
2021/11/06 08:06:55;;;;;;;169.70;47.17;;;9.10;99.90;;;;;;6249361;22;20420;-72
2021/11/06 08:09:24;;;;;;;152.00;42.33;;;9.10;99.90;;;;;;6257599;22;20492;-73
2021/11/06 08:11:53;;;;;;;205.73;58.13;;;9.10;99.90;;;;;;6247593;23;20453;-73
2021/11/06 08:14:22;;;;;;;200.37;58.17;;;9.10;99.90;;;;;;6257836;23;20444;-73
2021/11/06 08:16:55;;;;;;;109.97;48.57;;;9.10;99.90;;;;;;6245856;23;20524;-73
2021/11/06 08:19:24;;;;;;;208.30;55.40;;;9.10;99.90;;;;;;6245885;23;20410;-73
2021/11/06 08:21:55;;;;;;;197.83;55.30;;;9.10;99.90;;;;;;6245764;23;20738;-73
2021/11/06 08:24:25;;;;;;;183.70;51.90;;;9.10;99.90;;;;;;6257445;22;20426;-73
2021/11/06 08:26:53;;;;;;;124.23;50.97;;;9.20;99.90;;;;;;6245822;23;20730;-73
2021/11/06 08:29:21;;;;;;;204.60;61.03;;;9.20;99.90;;;;;;6257437;22;20432;-72
2021/11/06 08:31:49;;;;;;;196.60;47.93;;;9.20;99.90;;;;;;6257195;22;20413;-72
2021/11/06 08:34:18;;;;;;;182.53;51.73;;;9.20;99.90;;;;;;6257530;22;20421;-73
2021/11/06 08:36:46;;;;;;;234.43;55.20;;;9.20;99.90;;;;;;6257307;23;20397;-73
2021/11/06 08:39:17;;;;;;;230.83;55.90;;;9.20;99.90;;;;;;6257396;23;20425;-72
2021/11/06 08:41:47;;;;;;;155.37;47.80;;;9.20;99.90;;;;;;6258046;23;20464;-72
2021/11/06 08:44:15;;;;;;;191.77;53.70;;;9.20;99.90;;;;;;6246165;23;20535;-73
2021/11/06 08:46:45;;;;;;;117.60;45.70;;;9.30;99.90;;;;;;6246131;23;20410;-72
2021/11/06 08:49:15;;;;;;;85.70;41.63;;;9.30;99.90;;;;;;6257789;23;20500;-72
2021/11/06 08:51:44;;;;;;;131.20;52.67;;;9.30;99.90;;;;;;6257635;22;20742;-72
2021/11/06 08:54:12;;;;;;;215.87;55.37;;;9.30;99.90;;;;;;6245903;23;20480;-73
2021/11/06 08:56:41;;;;;;;110.27;43.33;;;9.30;99.90;;;;;;6245995;23;20829;-72
2021/11/06 08:59:12;;;;;;;243.33;56.20;;;9.30;99.90;;;;;;6248190;22;20432;-72
2021/11/06 09:01:40;;;;;;;267.80;59.70;;;9.30;99.90;;;;;;6246012;23;20465;-72
2021/11/06 09:04:08;;;;;;;124.57;50.43;;;9.40;99.90;;;;;;6247577;23;20430;-72
2021/11/06 09:06:38;;;;;;;253.00;62.07;;;9.40;99.90;;;;;;6257587;22;20492;-72
2021/11/06 09:09:10;;;;;;;229.33;55.93;;;9.40;99.90;;;;;;6258346;22;20907;-71
2021/11/06 09:11:39;;;;;;;191.93;61.50;;;9.40;99.90;;;;;;6257613;23;20410;-70
2021/11/06 09:14:09;;;;;;;159.60;52.60;;;9.40;99.90;;;;;;6257450;23;20408;-71
2021/11/06 09:16:39;;;;;;;186.17;52.23;;;9.50;99.90;;;;;;6257572;23;20884;-71
2021/11/06 09:19:07;;;;;;;268.23;59.93;;;9.50;99.90;;;;;;6257405;23;20988;-71
2021/11/06 09:21:35;;;;;;;232.73;68.50;;;9.50;99.90;;;;;;6257131;22;20421;-71
2021/11/06 09:24:04;;;;;;;229.83;59.70;;;9.50;99.90;;;;;;6245458;23;20418;-71
2021/11/06 09:26:34;;;;;;;211.77;56.53;;;9.50;99.90;;;;;;6247415;23;20484;-73
2021/11/06 09:29:04;;;;;;;259.97;62.80;;;9.60;99.90;;;;;;6247321;23;20496;-71
2021/11/06 09:31:32;;;;;;;198.10;59.70;;;9.60;99.90;;;;;;6257448;22;20442;-71
2021/11/06 09:34:03;;;;;;;265.03;66.97;;;9.60;99.90;;;;;;6258054;22;20477;-70
2021/11/06 09:36:31;;;;;;;186.67;56.93;;;9.60;99.90;;;;;;6257334;22;20460;-70
2021/11/06 09:39:01;;;;;;;188.43;58.13;;;9.60;99.90;;;;;;6257392;22;20426;-73
2021/11/06 09:41:30;;;;;;;215.97;54.27;;;9.60;99.90;;;;;;6257721;22;20628;-72
2021/11/06 09:44:41;;;;;;;392.97;65.80;;;9.60;99.90;;;;;;5112001;27;20589;-73
2021/11/06 09:47:12;;;;;;;194.13;52.83;;;9.60;99.90;;;;;;5109874;28;20443;-73
2021/11/06 09:49:41;;;;;;;202.77;55.93;;;9.60;99.90;;;;;;5109844;28;20489;-73
2021/11/06 09:52:09;;;;;;;217.43;59.23;;;9.60;99.90;;;;;;5111032;28;20439;-73
2021/11/06 09:54:38;;;;;;;168.87;52.37;;;9.60;99.90;;;;;;5111072;28;20932;-73
2021/11/06 09:57:07;;;;;;;182.63;53.73;;;9.70;99.90;;;;;;5111050;28;20452;-73
2021/11/06 09:59:37;;;;;;;212.63;55.17;;;9.70;99.90;;;;;;5110908;28;20530;-73
2021/11/06 10:02:07;;;;;;;204.00;58.37;;;9.70;99.90;;;;;;5110370;28;20530;-72
2021/11/06 10:04:35;;;;;;;259.50;59.20;;;9.70;99.90;;;;;;5110815;28;20570;-72
2021/11/06 10:07:16;;;;;;;200.23;53.37;;;9.70;99.90;;;;;;5108908;28;20546;-72
2021/11/06 10:09:58;;;;;;;267.50;66.97;;;9.70;99.90;;;;;;5109466;28;20463;-72
2021/11/06 10:12:27;;;;;;;133.80;44.40;;;9.70;99.90;;;;;;5110742;28;20442;-72
2021/11/06 10:15:07;;;;;;;171.43;58.13;;;9.80;99.90;;;;;;5109372;28;20899;-73
2021/11/06 10:17:37;;;;;;;300.30;70.07;;;9.80;99.90;;;;;;5099666;28;20431;-72
2021/11/06 10:20:27;;;;;;;175.77;62.10;;;9.80;99.90;;;;;;5090507;28;20539;-72
2021/11/06 10:22:58;;;;;;;209.00;60.23;;;9.80;99.90;;;;;;5088846;28;20543;-73
2021/11/06 10:25:27;;;;;;;178.13;56.33;;;9.80;99.90;;;;;;5093059;28;20449;-72
2021/11/06 10:27:57;;;;;;;271.70;64.63;;;9.80;99.90;;;;;;5110706;28;20785;-74
2021/11/06 10:30:28;;;;;;;260.73;70.23;;;9.80;99.90;;;;;;5110102;28;20535;-72
2021/11/06 10:33:01;;;;;;;287.73;70.93;;;9.90;99.90;;;;;;5088731;28;20531;-73
2021/11/06 10:35:31;;;;;;;270.40;61.50;;;9.90;99.90;;;;;;5089790;28;20467;-73
2021/11/06 10:38:03;;;;;;;322.47;73.37;;;9.90;99.90;;;;;;5090268;28;20503;-74
2021/11/06 10:40:39;;;;;;;199.97;57.30;;;9.90;99.90;;;;;;5088926;28;20507;-73
2021/11/06 10:43:10;;;;;;;190.57;54.60;;;9.90;99.90;;;;;;5090018;28;20475;-72
2021/11/06 10:45:44;;;;;;;192.77;60.50;;;9.90;99.90;;;;;;5090107;28;20466;-71
2021/11/06 10:48:16;;;;;;;211.33;57.27;;;9.90;99.90;;;;;;5090004;28;20504;-71
2021/11/06 10:50:48;;;;;;;342.60;68.37;;;10.00;99.90;;;;;;5090855;28;20558;-73
2021/11/06 10:53:34;;;;;;;134.63;47.50;;;10.00;99.90;;;;;;5109345;28;20916;-72
2021/11/06 10:56:04;;;;;;;275.23;62.20;;;10.00;99.90;;;;;;5086370;28;20458;-73
2021/11/06 10:58:34;;;;;;;175.97;58.43;;;10.00;99.90;;;;;;5095043;28;20486;-75
2021/11/06 11:01:06;;;;;;;271.97;61.23;;;10.10;99.90;;;;;;5096355;28;20452;-73
2021/11/06 11:03:39;;;;;;;217.73;66.50;;;10.10;99.90;;;;;;5090512;28;20501;-74
2021/11/06 11:06:09;;;;;;;254.57;64.87;;;10.10;99.90;;;;;;5076637;28;20511;-75
2021/11/06 11:08:43;;;;;;;313.53;68.70;;;10.10;99.90;;;;;;5075816;28;20491;-75
2021/11/06 11:11:12;;;;;;;340.00;67.43;;;10.10;99.90;;;;;;5074135;28;20551;-75
2021/11/06 11:13:49;;;;;;;274.63;57.73;;;10.10;99.90;;;;;;5075948;28;21001;-74
2021/11/06 11:16:19;;;;;;;181.13;59.57;;;10.10;99.90;;;;;;5076471;28;20827;-74
2021/11/06 11:18:50;;;;;;;237.57;62.50;;;10.10;99.90;;;;;;5077709;28;20462;-75
2021/11/06 11:21:21;;;;;;;210.87;49.67;;;10.10;99.90;;;;;;5095858;28;20451;-74
2021/11/06 11:23:51;;;;;;;264.80;69.63;;;10.10;99.90;;;;;;5084118;28;20469;-73
2021/11/06 11:26:23;;;;;;;303.97;66.50;;;10.10;99.90;;;;;;5074340;28;20530;-74
2021/11/06 11:28:52;;;;;;;286.10;66.57;;;10.10;99.90;;;;;;5076074;28;20421;-74
2021/11/06 11:31:22;;;;;;;208.03;54.63;;;10.20;99.90;;;;;;5075347;28;20994;-74
2021/11/06 11:33:53;;;;;;;242.50;58.43;;;10.20;99.90;;;;;;5076395;28;20897;-74
2021/11/06 11:36:23;;;;;;;238.23;61.70;;;10.20;99.90;;;;;;5075384;28;20456;-74
2021/11/06 11:38:51;;;;;;;234.83;62.37;;;10.20;99.90;;;;;;5074021;28;20477;-74
2021/11/06 11:41:46;;;;;;;253.03;69.43;;;10.20;99.90;;;;;;5073850;28;20465;-74
2021/11/06 11:44:43;;;;;;;302.60;68.93;;;10.20;99.90;;;;;;5073710;28;20572;-74
2021/11/06 11:47:16;;;;;;;235.97;59.50;;;10.20;99.90;;;;;;5073838;28;20517;-74
2021/11/06 11:49:50;;;;;;;165.47;50.67;;;10.20;99.90;;;;;;5075023;28;20857;-74
2021/11/06 11:52:27;;;;;;;275.00;61.23;;;10.20;99.90;;;;;;5092880;28;20447;-74
2021/11/06 11:54:57;;;;;;;204.00;50.83;;;10.20;99.90;;;;;;5087249;28;20488;-74
2021/11/06 11:57:26;;;;;;;276.47;60.17;;;10.20;99.90;;;;;;5074887;28;20930;-74
2021/11/06 11:59:54;;;;;;;313.97;61.30;;;10.20;99.90;;;;;;5073588;28;20814;-73
2021/11/06 12:02:30;;;;;;;265.97;73.83;;;10.30;99.90;;;;;;5075087;28;20890;-74
2021/11/06 12:05:34;;;;;;;159.70;57.93;;;10.30;99.90;;;;;;5073383;28;21082;-74
2021/11/06 12:08:30;;;;;;;203.37;55.07;;;10.30;99.90;;;;;;5074054;28;20479;-74
2021/11/06 12:11:15;;;;;;;231.53;53.87;;;10.30;99.90;;;;;;5077954;28;21043;-73
2021/11/06 12:14:01;;;;;;;252.90;61.80;;;10.30;99.90;;;;;;5058131;28;20947;-74
2021/11/06 12:16:56;;;;;;;190.87;47.90;;;10.40;99.90;;;;;;5053206;28;20971;-74
2021/11/06 12:19:36;;;;;;;312.53;67.07;;;10.50;99.90;;;;;;5091786;28;20681;-75
2021/11/06 12:22:11;;;;;;;260.43;55.27;;;10.50;99.90;;;;;;5094583;28;20509;-74
2021/11/06 12:24:41;;;;;;;268.13;58.33;;;10.50;99.90;;;;;;5094836;28;20473;-74
2021/11/06 12:27:11;;;;;;;224.80;50.27;;;10.60;99.90;;;;;;5094542;28;20436;-74
2021/11/06 12:29:55;;;;;;;282.47;63.13;;;10.70;99.90;;;;;;5093259;28;20448;-75
2021/11/06 12:32:32;;;;;;;319.53;66.57;;;10.70;99.90;;;;;;5057615;28;20441;-75
2021/11/06 12:35:17;;;;;;;290.33;64.73;;;10.70;99.90;;;;;;5069070;28;20463;-74
2021/11/06 12:37:55;;;;;;;229.10;49.63;;;10.70;99.90;;;;;;5088756;28;20536;-74
2021/11/06 12:40:44;;;;;;;125.20;43.90;;;10.70;99.90;;;;;;5074916;28;20560;-74